Time;durP1;ratioP1;P1;durP2;ratioP2;P2;SDS_P1;SDS_P2;PMS_P1;PMS_P2;Temp;Humidity;BMP_temperature;BMP_pressure;BME280_temperature;BME280_humidity;BME280_pressure;Samples;Min_cycle;Max_cycle;Signal;HPM_P1;HPM_P2
2022/02/13 00:01:54;;;;;;;19.42;11.65;;;;;;;;;;5024257;28;20041;-48
2022/02/13 00:04:21;;;;;;;28.15;15.98;;;;;;;;;;5030252;28;20161;-51
2022/02/13 00:06:47;;;;;;;35.15;18.45;;;;;;;;;;5028248;28;20029;-53
2022/02/13 00:09:18;;;;;;;52.15;25.48;;;;;;;;;;5029126;28;20025;-50
2022/02/13 00:11:44;;;;;;;34.15;16.83;;;;;;;;;;5028309;28;20028;-47
2022/02/13 00:14:10;;;;;;;32.60;16.67;;;;;;;;;;5028996;28;20025;-52
2022/02/13 00:16:36;;;;;;;36.10;17.95;;;;;;;;;;5029726;28;20452;-49
2022/02/13 00:19:02;;;;;;;27.25;14.25;;;;;;;;;;5030629;28;20623;-47
2022/02/13 00:21:33;;;;;;;37.35;18.88;;;;;;;;;;5029489;28;20041;-51
2022/02/13 00:23:59;;;;;;;40.63;21.30;;;;;;;;;;5035913;28;20393;-46
2022/02/13 00:26:26;;;;;;;44.63;23.40;;;;;;;;;;5054343;28;20117;-46
2022/02/13 00:28:52;;;;;;;46.88;25.23;;;;;;;;;;5054202;28;20052;-47
2022/02/13 00:31:22;;;;;;;37.78;21.38;;;;;;;;;;5054360;28;20032;-53
2022/02/13 00:33:48;;;;;;;67.20;30.30;;;;;;;;;;5054166;28;20146;-47
2022/02/13 00:36:14;;;;;;;45.10;20.00;;;;;;;;;;5054244;28;20017;-46
2022/02/13 00:38:40;;;;;;;36.15;19.08;;;;;;;;;;5053978;28;20083;-47
2022/02/13 00:41:06;;;;;;;44.47;20.25;;;;;;;;;;5054129;28;20131;-46
2022/02/13 00:43:32;;;;;;;37.70;17.02;;;;;;;;;;5054001;28;20024;-52
2022/02/13 00:45:59;;;;;;;34.47;18.23;;;;;;;;;;5054310;28;20419;-52
2022/02/13 00:48:25;;;;;;;29.10;16.60;;;;;;;;;;5053853;28;20048;-47
2022/02/13 00:50:51;;;;;;;34.20;17.27;;;;;;;;;;5054660;28;20020;-47
2022/02/13 00:53:17;;;;;;;62.03;17.27;;;;;;;;;;5054362;28;20025;-47
2022/02/13 00:55:43;;;;;;;45.83;15.63;;;;;;;;;;5054396;28;20541;-47
2022/02/13 00:58:09;;;;;;;25.25;12.80;;;;;;;;;;5054139;28;20047;-47
2022/02/13 01:00:35;;;;;;;18.42;10.65;;;;;;;;;;5054173;28;20043;-47
2022/02/13 01:03:01;;;;;;;19.33;11.00;;;;;;;;;;5053703;28;20021;-48
2022/02/13 01:05:27;;;;;;;22.08;11.82;;;;;;;;;;5053557;28;20024;-47
2022/02/13 01:07:53;;;;;;;19.27;10.60;;;;;;;;;;5053316;28;20379;-48
2022/02/13 01:10:20;;;;;;;24.00;12.40;;;;;;;;;;5054097;28;20354;-51
2022/02/13 01:12:46;;;;;;;17.75;9.88;;;;;;;;;;5054197;28;20032;-47
2022/02/13 01:15:12;;;;;;;22.92;10.60;;;;;;;;;;5054022;28;20103;-48
2022/02/13 01:17:38;;;;;;;19.77;10.18;;;;;;;;;;5054071;28;20492;-52
2022/02/13 01:20:04;;;;;;;19.02;10.30;;;;;;;;;;5053921;28;20032;-51
2022/02/13 01:22:30;;;;;;;23.42;12.48;;;;;;;;;;5053855;28;20125;-46
2022/02/13 01:24:56;;;;;;;26.25;13.45;;;;;;;;;;5053926;28;20027;-49
2022/02/13 01:27:22;;;;;;;29.05;15.30;;;;;;;;;;5053555;28;20032;-46
2022/02/13 01:29:48;;;;;;;30.65;15.55;;;;;;;;;;5053684;28;20053;-45
2022/02/13 01:32:14;;;;;;;32.60;16.20;;;;;;;;;;5053675;28;20021;-47
2022/02/13 01:34:45;;;;;;;27.13;13.95;;;;;;;;;;5053719;28;20052;-47
2022/02/13 01:37:13;;;;;;;21.15;11.85;;;;;;;;;;5053811;28;20389;-48
2022/02/13 01:39:39;;;;;;;23.73;11.35;;;;;;;;;;5053513;28;20024;-49
2022/02/13 01:42:09;;;;;;;21.10;11.35;;;;;;;;;;5053745;28;20124;-48
2022/02/13 01:44:38;;;;;;;22.13;10.95;;;;;;;;;;5053648;28;20025;-48
2022/02/13 01:47:04;;;;;;;15.20;9.30;;;;;;;;;;5053563;28;20029;-48
2022/02/13 01:49:31;;;;;;;14.25;8.32;;;;;;;;;;5053520;28;20147;-47
2022/02/13 01:51:58;;;;;;;16.13;8.65;;;;;;;;;;5052778;28;20112;-48
2022/02/13 01:54:24;;;;;;;17.60;9.15;;;;;;;;;;5052674;28;20025;-48
2022/02/13 01:56:51;;;;;;;20.05;10.80;;;;;;;;;;5052726;28;20053;-47
2022/02/13 01:59:17;;;;;;;17.42;9.30;;;;;;;;;;5052658;28;20539;-47
2022/02/13 02:01:45;;;;;;;21.10;9.90;;;;;;;;;;5052748;28;20052;-48
2022/02/13 02:04:12;;;;;;;15.77;8.52;;;;;;;;;;5052754;28;20035;-46
2022/02/13 02:06:38;;;;;;;23.25;9.93;;;;;;;;;;5052823;28;20067;-47
2022/02/13 02:09:05;;;;;;;17.50;9.80;;;;;;;;;;5052581;28;20029;-46
2022/02/13 02:11:31;;;;;;;15.43;8.68;;;;;;;;;;5053024;28;20427;-48
2022/02/13 02:13:59;;;;;;;14.73;8.23;;;;;;;;;;5052942;28;20021;-47
2022/02/13 02:16:25;;;;;;;15.50;7.72;;;;;;;;;;5052650;28;20506;-46
2022/02/13 02:18:51;;;;;;;15.25;7.68;;;;;;;;;;5052575;28;20067;-47
2022/02/13 02:21:18;;;;;;;13.07;7.70;;;;;;;;;;5052519;28;20025;-53
2022/02/13 02:23:44;;;;;;;16.60;8.65;;;;;;;;;;5052561;28;20025;-47
2022/02/13 02:26:10;;;;;;;15.90;8.70;;;;;;;;;;5052699;28;20021;-46
2022/02/13 02:28:36;;;;;;;14.15;8.07;;;;;;;;;;5052253;28;20552;-46
2022/02/13 02:31:02;;;;;;;16.02;8.50;;;;;;;;;;5055662;28;20037;-46
2022/02/13 02:33:28;;;;;;;15.05;8.05;;;;;;;;;;5056587;28;20096;-47
2022/02/13 02:35:55;;;;;;;15.13;7.60;;;;;;;;;;5056427;28;20021;-46
2022/02/13 02:38:21;;;;;;;14.43;8.30;;;;;;;;;;5056412;28;20032;-45
2022/02/13 02:40:47;;;;;;;16.00;7.47;;;;;;;;;;5053720;28;20064;-46
2022/02/13 02:43:13;;;;;;;12.13;7.38;;;;;;;;;;5056489;28;20017;-49
2022/02/13 02:45:39;;;;;;;14.63;8.60;;;;;;;;;;5056383;28;20112;-47
2022/02/13 02:48:06;;;;;;;13.30;8.10;;;;;;;;;;5056390;28;20013;-47
2022/02/13 02:50:32;;;;;;;14.63;8.10;;;;;;;;;;5056172;28;20036;-47
2022/02/13 02:52:58;;;;;;;13.60;8.40;;;;;;;;;;5056047;28;20017;-46
2022/02/13 02:55:24;;;;;;;13.48;8.43;;;;;;;;;;5056207;28;20369;-48
2022/02/13 02:57:50;;;;;;;14.20;8.52;;;;;;;;;;5055941;28;20420;-47
2022/02/13 03:00:16;;;;;;;17.48;9.60;;;;;;;;;;5056041;28;20032;-47
2022/02/13 03:02:43;;;;;;;13.73;8.23;;;;;;;;;;5055888;28;20033;-46
2022/02/13 03:05:10;;;;;;;16.10;9.45;;;;;;;;;;5055864;28;20014;-48
2022/02/13 03:07:38;;;;;;;19.67;10.02;;;;;;;;;;5055879;28;20028;-48
2022/02/13 03:10:07;;;;;;;17.92;9.60;;;;;;;;;;5055993;28;20044;-47
2022/02/13 03:12:33;;;;;;;14.77;8.23;;;;;;;;;;5055883;28;20013;-47
2022/02/13 03:14:59;;;;;;;14.30;8.73;;;;;;;;;;5055848;28;20032;-47
2022/02/13 03:17:25;;;;;;;16.23;8.80;;;;;;;;;;5055669;28;20048;-46
2022/02/13 03:19:51;;;;;;;16.63;9.50;;;;;;;;;;5055507;28;20025;-47
2022/02/13 03:22:17;;;;;;;16.27;9.43;;;;;;;;;;5055495;28;20504;-47
2022/02/13 03:24:43;;;;;;;17.63;9.70;;;;;;;;;;5055471;28;20481;-47
2022/02/13 03:27:11;;;;;;;16.70;10.07;;;;;;;;;;5055451;28;20021;-47
2022/02/13 03:29:37;;;;;;;18.67;9.27;;;;;;;;;;5055463;28;20041;-49
2022/02/13 03:32:04;;;;;;;17.10;9.93;;;;;;;;;;5055513;28;20033;-47
2022/02/13 03:34:30;;;;;;;19.38;10.52;;;;;;;;;;5055326;28;20056;-47
2022/02/13 03:36:56;;;;;;;16.30;9.07;;;;;;;;;;5055319;28;20066;-48
2022/02/13 03:39:22;;;;;;;18.65;10.15;;;;;;;;;;5055194;28;20027;-47
2022/02/13 03:41:52;;;;;;;20.48;10.60;;;;;;;;;;5054054;28;20051;-47
2022/02/13 03:44:18;;;;;;;18.98;10.07;;;;;;;;;;5055241;28;20017;-53
2022/02/13 03:46:46;;;;;;;16.70;10.05;;;;;;;;;;5055152;28;20087;-46
2022/02/13 03:49:14;;;;;;;16.77;10.52;;;;;;;;;;5054948;28;20036;-47
2022/02/13 03:51:40;;;;;;;21.65;10.73;;;;;;;;;;5055155;28;20158;-47
2022/02/13 03:54:06;;;;;;;18.92;10.23;;;;;;;;;;5055159;28;20108;-48
2022/02/13 03:56:33;;;;;;;17.98;10.02;;;;;;;;;;5055786;28;20029;-46
2022/02/13 03:58:59;;;;;;;18.05;9.98;;;;;;;;;;5055323;28;20025;-46
2022/02/13 04:01:25;;;;;;;14.77;9.38;;;;;;;;;;5055513;28;20447;-46
2022/02/13 04:03:51;;;;;;;19.80;10.68;;;;;;;;;;5055407;28;20029;-46
2022/02/13 04:06:17;;;;;;;17.15;9.30;;;;;;;;;;5055264;28;20029;-46
2022/02/13 04:08:43;;;;;;;17.70;10.43;;;;;;;;;;5055363;28;20017;-46
2022/02/13 04:11:09;;;;;;;19.23;10.70;;;;;;;;;;5055201;28;20017;-46
2022/02/13 04:13:35;;;;;;;18.45;10.88;;;;;;;;;;5055151;28;20042;-47
2022/02/13 04:16:01;;;;;;;17.13;10.05;;;;;;;;;;5055141;28;20028;-46
2022/02/13 04:18:27;;;;;;;20.83;10.90;;;;;;;;;;5055310;28;20104;-46
2022/02/13 04:20:54;;;;;;;16.63;10.15;;;;;;;;;;5054769;28;20036;-48
2022/02/13 04:23:20;;;;;;;21.25;10.13;;;;;;;;;;5054843;28;20025;-45
2022/02/13 04:25:46;;;;;;;19.13;10.15;;;;;;;;;;5054976;28;20032;-48
2022/02/13 04:28:12;;;;;;;22.30;11.88;;;;;;;;;;5054512;28;20484;-48
2022/02/13 04:30:38;;;;;;;20.73;11.35;;;;;;;;;;5055003;28;20029;-45
2022/02/13 04:33:04;;;;;;;21.02;11.98;;;;;;;;;;5054633;28;20523;-48
2022/02/13 04:35:33;;;;;;;31.45;16.88;;;;;;;;;;5054667;28;20029;-47
2022/02/13 04:38:05;;;;;;;32.03;16.77;;;;;;;;;;5054629;28;20057;-46
2022/02/13 04:40:31;;;;;;;39.15;21.70;;;;;;;;;;5054695;28;20381;-47
2022/02/13 04:42:57;;;;;;;39.88;21.60;;;;;;;;;;5054780;28;20021;-46
2022/02/13 04:45:23;;;;;;;31.52;16.90;;;;;;;;;;5054682;28;20443;-46
2022/02/13 04:47:49;;;;;;;26.95;14.98;;;;;;;;;;5054534;28;20031;-45
2022/02/13 04:50:21;;;;;;;26.25;13.57;;;;;;;;;;5054607;28;20105;-46
2022/02/13 04:52:51;;;;;;;19.08;12.30;;;;;;;;;;5053870;28;20107;-46
2022/02/13 04:55:19;;;;;;;23.75;12.95;;;;;;;;;;5054461;28;20396;-46
2022/02/13 04:57:46;;;;;;;25.40;13.30;;;;;;;;;;5054097;28;20522;-47
2022/02/13 05:00:16;;;;;;;31.00;15.75;;;;;;;;;;5054369;28;20454;-46
2022/02/13 05:02:42;;;;;;;25.67;14.90;;;;;;;;;;5054242;28;20075;-47
2022/02/13 05:05:09;;;;;;;34.90;18.63;;;;;;;;;;5054244;28;20021;-46
2022/02/13 05:07:35;;;;;;;32.25;16.85;;;;;;;;;;5053279;28;20400;-47
2022/02/13 05:10:01;;;;;;;46.58;21.95;;;;;;;;;;5054281;28;20075;-46
2022/02/13 05:12:27;;;;;;;23.88;13.25;;;;;;;;;;5053982;28;20025;-50
2022/02/13 05:14:54;;;;;;;34.13;18.27;;;;;;;;;;5054161;28;20029;-46
2022/02/13 05:17:24;;;;;;;36.25;17.80;;;;;;;;;;5053886;28;20376;-47
2022/02/13 05:19:52;;;;;;;33.85;17.95;;;;;;;;;;5053897;28;20029;-46
2022/02/13 05:22:23;;;;;;;32.72;17.40;;;;;;;;;;5053865;28;20029;-52
2022/02/13 05:24:49;;;;;;;32.17;17.85;;;;;;;;;;5053846;28;20017;-47
2022/02/13 05:27:17;;;;;;;33.90;20.15;;;;;;;;;;5053758;28;20493;-46
2022/02/13 05:29:43;;;;;;;35.38;18.65;;;;;;;;;;5053539;28;20057;-46
2022/02/13 05:32:09;;;;;;;29.27;15.05;;;;;;;;;;5053645;28;20423;-52
2022/02/13 05:34:36;;;;;;;29.00;15.10;;;;;;;;;;5053499;28;20104;-47
2022/02/13 05:37:02;;;;;;;31.70;16.73;;;;;;;;;;5053522;28;20035;-46
2022/02/13 05:39:28;;;;;;;30.75;15.85;;;;;;;;;;5053468;28;20469;-47
2022/02/13 05:41:54;;;;;;;29.02;16.98;;;;;;;;;;5053460;28;20048;-46
2022/02/13 05:44:20;;;;;;;32.45;16.77;;;;;;;;;;5053500;28;20021;-46
2022/02/13 05:46:46;;;;;;;34.88;18.20;;;;;;;;;;5053538;28;20029;-45
2022/02/13 05:49:13;;;;;;;32.80;17.00;;;;;;;;;;5053503;28;20063;-45
2022/02/13 05:51:39;;;;;;;31.75;18.33;;;;;;;;;;5053323;28;20028;-51
2022/02/13 05:54:05;;;;;;;34.58;18.17;;;;;;;;;;5053287;28;20025;-46
2022/02/13 05:56:31;;;;;;;41.47;20.42;;;;;;;;;;5053281;28;20031;-47
2022/02/13 05:58:57;;;;;;;33.10;18.23;;;;;;;;;;5053711;28;20029;-46
2022/02/13 06:01:23;;;;;;;35.35;17.58;;;;;;;;;;5053102;28;20051;-47
2022/02/13 06:03:49;;;;;;;40.38;18.40;;;;;;;;;;5053189;28;20021;-47
2022/02/13 06:06:15;;;;;;;39.85;19.02;;;;;;;;;;5052609;28;20071;-47
2022/02/13 06:08:41;;;;;;;49.47;21.80;;;;;;;;;;5053245;28;20025;-47
2022/02/13 06:11:08;;;;;;;51.70;21.42;;;;;;;;;;5053217;28;20036;-47
2022/02/13 06:13:34;;;;;;;42.45;20.33;;;;;;;;;;5053139;28;20074;-47
2022/02/13 06:16:01;;;;;;;55.70;22.27;;;;;;;;;;5053615;28;20021;-47
2022/02/13 06:18:30;;;;;;;58.03;23.83;;;;;;;;;;5053166;28;20104;-47
2022/02/13 06:20:57;;;;;;;46.40;21.73;;;;;;;;;;5053133;28;20056;-46
2022/02/13 06:23:23;;;;;;;61.75;25.13;;;;;;;;;;5053286;28;20025;-46
2022/02/13 06:25:49;;;;;;;56.97;26.23;;;;;;;;;;5053178;28;20053;-46
2022/02/13 06:28:15;;;;;;;95.05;39.40;;;;;;;;;;5052895;28;20032;-47
2022/02/13 06:30:42;;;;;;;67.95;28.02;;;;;;;;;;5053064;28;20388;-47
2022/02/13 06:35:54;;;;;;;56.95;27.40;;;;;;;;;;5353276;23;20057;-51
2022/02/13 06:38:20;;;;;;;61.60;29.40;;;;;;;;;;5012045;28;20058;-48
2022/02/13 06:40:46;;;;;;;43.75;23.55;;;;;;;;;;5011856;28;20508;-50
2022/02/13 06:43:12;;;;;;;44.83;23.65;;;;;;;;;;5011820;28;20038;-49
2022/02/13 06:45:41;;;;;;;47.42;23.75;;;;;;;;;;5012186;28;20022;-48
2022/02/13 06:48:07;;;;;;;53.25;26.88;;;;;;;;;;5010053;28;20033;-48
2022/02/13 06:50:33;;;;;;;60.75;27.05;;;;;;;;;;5011987;28;20101;-49
2022/02/13 06:52:59;;;;;;;55.92;29.20;;;;;;;;;;5011691;28;20145;-51
2022/02/13 06:55:26;;;;;;;41.58;22.33;;;;;;;;;;5011853;28;20413;-50
2022/02/13 06:57:52;;;;;;;47.70;24.85;;;;;;;;;;5011556;28;20050;-50
2022/02/13 07:00:18;;;;;;;58.45;27.27;;;;;;;;;;5012071;28;20061;-50
2022/02/13 07:02:45;;;;;;;51.70;26.35;;;;;;;;;;5011428;28;20034;-51
2022/02/13 07:05:11;;;;;;;42.15;21.77;;;;;;;;;;5011702;28;20470;-48
2022/02/13 07:07:37;;;;;;;43.72;20.45;;;;;;;;;;5011459;28;20041;-49
2022/02/13 07:10:04;;;;;;;38.67;19.27;;;;;;;;;;5011588;28;20041;-50
2022/02/13 07:12:30;;;;;;;45.53;21.42;;;;;;;;;;5011776;28;20274;-48
2022/02/13 07:14:56;;;;;;;56.35;25.83;;;;;;;;;;5011415;28;20500;-51
2022/02/13 07:17:24;;;;;;;61.88;30.63;;;;;;;;;;5014781;28;20025;-49
2022/02/13 07:19:50;;;;;;;60.90;28.52;;;;;;;;;;5014763;28;20040;-49
2022/02/13 07:22:18;;;;;;;47.22;24.50;;;;;;;;;;5015238;28;20466;-50
2022/02/13 07:24:45;;;;;;;42.85;24.50;;;;;;;;;;5014884;28;20029;-50
2022/02/13 07:27:13;;;;;;;45.28;25.10;;;;;;;;;;5014863;28;20437;-49
2022/02/13 07:29:39;;;;;;;54.08;26.80;;;;;;;;;;5014653;28;20037;-51
2022/02/13 07:32:08;;;;;;;41.00;22.30;;;;;;;;;;5014843;28;20017;-51
2022/02/13 07:34:34;;;;;;;40.90;18.45;;;;;;;;;;5014748;28;20058;-49
2022/02/13 07:37:04;;;;;;;35.10;18.42;;;;;;;;;;5014616;28;20438;-48
2022/02/13 07:39:30;;;;;;;35.28;16.50;;;;;;;;;;5014695;28;20085;-48
2022/02/13 07:41:59;;;;;;;32.60;17.58;;;;;;;;;;5014362;28;20088;-50
2022/02/13 07:44:25;;;;;;;34.55;18.05;;;;;;;;;;5014774;28;20022;-48
2022/02/13 07:46:52;;;;;;;31.67;16.02;;;;;;;;;;5014437;28;20032;-51
2022/02/13 07:49:18;;;;;;;29.15;16.52;;;;;;;;;;5014657;28;20057;-48
2022/02/13 07:51:45;;;;;;;28.45;15.43;;;;;;;;;;5014465;28;20022;-52
2022/02/13 07:54:11;;;;;;;31.17;14.73;;;;;;;;;;5014279;28;20033;-51
2022/02/13 07:56:37;;;;;;;30.67;14.80;;;;;;;;;;5014517;28;20022;-47
2022/02/13 07:59:03;;;;;;;58.20;30.35;;;;;;;;;;5014265;28;20474;-51
2022/02/13 08:01:29;;;;;;;26.27;13.55;;;;;;;;;;5014353;28;20041;-51
2022/02/13 08:03:55;;;;;;;27.67;15.40;;;;;;;;;;5014098;28;20047;-53
2022/02/13 08:06:23;;;;;;;48.28;24.42;;;;;;;;;;4997050;28;20072;-52
2022/02/13 08:08:50;;;;;;;30.90;16.65;;;;;;;;;;5014040;28;20101;-50
2022/02/13 08:11:19;;;;;;;52.47;27.08;;;;;;;;;;5014317;28;20036;-51
2022/02/13 08:13:45;;;;;;;27.48;14.75;;;;;;;;;;5014003;28;20020;-53
2022/02/13 08:16:14;;;;;;;31.73;15.88;;;;;;;;;;5013925;28;20826;-52
2022/02/13 08:18:41;;;;;;;30.65;16.08;;;;;;;;;;5014027;28;20382;-52
2022/02/13 08:21:08;;;;;;;26.35;13.77;;;;;;;;;;5013530;28;20026;-52
2022/02/13 08:23:34;;;;;;;21.67;11.93;;;;;;;;;;5015990;28;20358;-52
2022/02/13 08:26:00;;;;;;;24.23;12.00;;;;;;;;;;5004223;28;20026;-47
2022/02/13 08:28:26;;;;;;;24.77;12.55;;;;;;;;;;4995376;28;20026;-47
2022/02/13 08:30:53;;;;;;;19.35;11.02;;;;;;;;;;4994930;28;20361;-47
2022/02/13 08:33:19;;;;;;;27.08;12.30;;;;;;;;;;4993179;28;20473;-47
2022/02/13 08:35:45;;;;;;;18.13;10.77;;;;;;;;;;4990791;28;20078;-48
2022/02/13 08:38:11;;;;;;;21.00;13.10;;;;;;;;;;4993977;28;20033;-48
2022/02/13 08:40:37;;;;;;;20.27;10.88;;;;;;;;;;4995698;28;20784;-48
2022/02/13 08:43:04;;;;;;;20.40;9.73;;;;;;;;;;4995959;28;20027;-50
2022/02/13 08:45:30;;;;;;;18.17;8.40;;;;;;;;;;4991052;28;20379;-50
2022/02/13 08:47:56;;;;;;;19.98;9.52;;;;;;;;;;4993887;28;20030;-47
2022/02/13 08:50:25;;;;;;;18.15;9.93;;;;;;;;;;4995419;28;20050;-50
2022/02/13 08:52:51;;;;;;;24.85;12.95;;;;;;;;;;4993841;28;20065;-50
2022/02/13 08:55:20;;;;;;;21.80;11.32;;;;;;;;;;4995399;28;20052;-47
2022/02/13 08:57:49;;;;;;;23.70;10.57;;;;;;;;;;4991746;28;20030;-51
2022/02/13 09:00:16;;;;;;;27.55;12.50;;;;;;;;;;4990829;28;20025;-48
2022/02/13 09:02:43;;;;;;;27.67;11.05;;;;;;;;;;4990814;28;21213;-48
2022/02/13 09:05:09;;;;;;;24.42;10.32;;;;;;;;;;4991464;28;20554;-48
2022/02/13 09:07:36;;;;;;;21.88;10.40;;;;;;;;;;4991639;28;20088;-53
2022/02/13 09:10:06;;;;;;;18.05;10.10;;;;;;;;;;4991765;28;20160;-48
2022/02/13 09:12:32;;;;;;;22.27;9.93;;;;;;;;;;4999168;28;20156;-49
2022/02/13 09:14:59;;;;;;;25.63;20.77;;;;;;;;;;4993162;28;20030;-47
2022/02/13 09:17:25;;;;;;;14.48;8.52;;;;;;;;;;4992006;28;20084;-46
2022/02/13 09:19:51;;;;;;;22.90;13.00;;;;;;;;;;4992368;28;20079;-48
2022/02/13 09:22:17;;;;;;;20.38;12.02;;;;;;;;;;4991465;28;20044;-49
2022/02/13 09:24:43;;;;;;;33.53;14.90;;;;;;;;;;4990954;28;20521;-48
2022/02/13 09:27:09;;;;;;;14.25;8.30;;;;;;;;;;4995531;28;20030;-50
2022/02/13 09:29:35;;;;;;;16.70;7.85;;;;;;;;;;4992834;28;20026;-48
2022/02/13 09:32:03;;;;;;;18.42;8.77;;;;;;;;;;4993804;28;20037;-47
2022/02/13 09:34:29;;;;;;;26.60;9.68;;;;;;;;;;4991341;28;20160;-45
2022/02/13 09:36:56;;;;;;;25.33;10.13;;;;;;;;;;4992233;28;20423;-48
2022/02/13 09:39:23;;;;;;;18.55;10.85;;;;;;;;;;4990785;28;20025;-48
2022/02/13 09:41:50;;;;;;;18.52;10.35;;;;;;;;;;4991870;28;20082;-50
2022/02/13 09:44:17;;;;;;;11.07;7.28;;;;;;;;;;4992663;28;20109;-46
2022/02/13 09:46:44;;;;;;;12.60;6.75;;;;;;;;;;4991077;28;20034;-46
2022/02/13 09:49:10;;;;;;;17.17;9.05;;;;;;;;;;4991842;28;20026;-46
2022/02/13 09:51:37;;;;;;;15.85;8.43;;;;;;;;;;4991978;28;20026;-46
2022/02/13 09:54:05;;;;;;;16.50;8.52;;;;;;;;;;4992378;28;20129;-47
2022/02/13 09:56:31;;;;;;;14.63;8.27;;;;;;;;;;4983481;28;20398;-47
2022/02/13 09:58:57;;;;;;;12.75;7.72;;;;;;;;;;4982531;28;20599;-48
2022/02/13 10:01:36;;;;;;;11.63;7.20;;;;;;;;;;4982759;28;20112;-47
2022/02/13 10:04:02;;;;;;;15.60;7.25;;;;;;;;;;4983681;28;20580;-47
2022/02/13 10:06:33;;;;;;;18.63;8.63;;;;;;;;;;4982653;28;20030;-47
2022/02/13 10:08:59;;;;;;;16.30;8.33;;;;;;;;;;4982242;28;20036;-47
2022/02/13 10:11:28;;;;;;;15.38;8.65;;;;;;;;;;4982465;28;20128;-47
2022/02/13 10:13:56;;;;;;;13.55;7.75;;;;;;;;;;4982749;28;20037;-47
2022/02/13 10:16:26;;;;;;;22.10;8.07;;;;;;;;;;4983556;28;20714;-47
2022/02/13 10:18:52;;;;;;;13.05;7.40;;;;;;;;;;4982394;28;20065;-45
2022/02/13 10:21:40;;;;;;;11.63;6.57;;;;;;;;;;4982404;28;20080;-48
2022/02/13 10:24:25;;;;;;;10.93;6.90;;;;;;;;;;4982431;28;20113;-48
2022/02/13 10:26:51;;;;;;;14.30;7.88;;;;;;;;;;4982356;28;20527;-47
2022/02/13 10:29:19;;;;;;;14.07;7.50;;;;;;;;;;4981006;28;20081;-48
2022/02/13 10:31:47;;;;;;;15.50;7.03;;;;;;;;;;4983482;28;20033;-47
2022/02/13 10:34:14;;;;;;;12.68;6.75;;;;;;;;;;4982098;28;20038;-47
2022/02/13 10:36:45;;;;;;;14.15;8.23;;;;;;;;;;4982447;28;20046;-47
2022/02/13 10:39:18;;;;;;;10.95;6.80;;;;;;;;;;4982195;28;20482;-47
2022/02/13 10:41:44;;;;;;;12.70;6.97;;;;;;;;;;4982337;28;20038;-46
2022/02/13 10:44:10;;;;;;;14.23;8.70;;;;;;;;;;4982334;28;20030;-45
2022/02/13 10:46:43;;;;;;;14.57;8.15;;;;;;;;;;4982050;28;20026;-46
2022/02/13 10:49:10;;;;;;;12.75;8.23;;;;;;;;;;4981829;28;20026;-47
2022/02/13 10:51:41;;;;;;;21.55;10.25;;;;;;;;;;4984486;28;20110;-47
2022/02/13 10:54:07;;;;;;;12.07;8.82;;;;;;;;;;4985859;28;20076;-46
2022/02/13 10:56:35;;;;;;;11.82;8.68;;;;;;;;;;4985951;28;20031;-48
2022/02/13 10:59:04;;;;;;;12.57;8.07;;;;;;;;;;4986699;28;20025;-47
2022/02/13 11:01:30;;;;;;;16.23;7.95;;;;;;;;;;4985515;28;20029;-48
2022/02/13 11:04:02;;;;;;;15.65;8.30;;;;;;;;;;4985508;28;20022;-45
2022/02/13 11:06:31;;;;;;;16.23;9.18;;;;;;;;;;4985696;28;20026;-44
2022/02/13 11:09:15;;;;;;;19.92;10.07;;;;;;;;;;4985383;28;20040;-46
2022/02/13 11:11:45;;;;;;;17.58;9.27;;;;;;;;;;4986975;28;20644;-46
2022/02/13 11:14:24;;;;;;;14.27;8.82;;;;;;;;;;4983913;28;20453;-47
2022/02/13 11:16:50;;;;;;;15.57;7.95;;;;;;;;;;4985558;28;20034;-46
2022/02/13 11:19:17;;;;;;;18.27;9.48;;;;;;;;;;4985179;28;20025;-46
2022/02/13 11:21:43;;;;;;;19.77;10.65;;;;;;;;;;4985339;28;20800;-46
2022/02/13 11:24:23;;;;;;;16.42;8.90;;;;;;;;;;4985334;28;20041;-45
2022/02/13 11:26:49;;;;;;;17.80;9.50;;;;;;;;;;4985337;28;20407;-45
2022/02/13 11:29:16;;;;;;;13.57;8.40;;;;;;;;;;4985017;28;20026;-45
2022/02/13 11:31:50;;;;;;;16.35;9.95;;;;;;;;;;4985163;28;20402;-44
2022/02/13 11:34:22;;;;;;;14.50;8.38;;;;;;;;;;4986327;28;20414;-45
2022/02/13 11:36:54;;;;;;;23.50;11.57;;;;;;;;;;4985119;28;20079;-45
2022/02/13 11:39:43;;;;;;;21.00;10.40;;;;;;;;;;4985913;28;20109;-46
2022/02/13 11:42:19;;;;;;;15.13;8.30;;;;;;;;;;4984791;28;20041;-45
2022/02/13 11:44:49;;;;;;;16.13;9.35;;;;;;;;;;4985932;28;20127;-45
2022/02/13 11:47:38;;;;;;;24.92;11.05;;;;;;;;;;4984678;28;20540;-45
2022/02/13 11:50:05;;;;;;;17.90;10.13;;;;;;;;;;4984681;28;20042;-46
2022/02/13 11:52:32;;;;;;;15.05;8.75;;;;;;;;;;4984887;28;20022;-45
2022/02/13 11:55:01;;;;;;;29.95;14.38;;;;;;;;;;4985779;28;20437;-45
2022/02/13 11:57:30;;;;;;;17.25;8.88;;;;;;;;;;4985691;28;20185;-44
2022/02/13 11:59:56;;;;;;;13.55;9.30;;;;;;;;;;4984429;28;20133;-44
2022/02/13 12:02:31;;;;;;;14.80;8.93;;;;;;;;;;4983376;28;20070;-44
2022/02/13 12:05:10;;;;;;;27.15;15.15;;;;;;;;;;4984755;28;20076;-46
2022/02/13 12:07:54;;;;;;;23.52;14.55;;;;;;;;;;4985665;28;20096;-46
2022/02/13 12:10:27;;;;;;;32.47;16.85;;;;;;;;;;4984448;28;20025;-46
2022/02/13 12:13:04;;;;;;;27.10;15.43;;;;;;;;;;4984559;28;20133;-46
2022/02/13 12:15:30;;;;;;;22.38;13.93;;;;;;;;;;4985372;28;20018;-47
2022/02/13 12:18:06;;;;;;;20.30;10.70;;;;;;;;;;4984478;28;20397;-46
2022/02/13 12:20:34;;;;;;;14.45;8.98;;;;;;;;;;4985548;28;20045;-46
2022/02/13 12:23:07;;;;;;;15.90;9.52;;;;;;;;;;4984205;28;20045;-46
2022/02/13 12:25:34;;;;;;;17.98;9.43;;;;;;;;;;4985757;28;20150;-46
2022/02/13 12:28:00;;;;;;;11.55;7.82;;;;;;;;;;4983969;28;20050;-47
2022/02/13 12:30:27;;;;;;;15.75;9.38;;;;;;;;;;4984246;28;20097;-47
2022/02/13 12:32:57;;;;;;;20.02;10.77;;;;;;;;;;4984040;28;20704;-46
2022/02/13 12:35:30;;;;;;;15.37;9.60;;;;;;;;;;4983627;28;20054;-46
2022/02/13 12:37:57;;;;;;;14.70;9.63;;;;;;;;;;4984235;28;20022;-46
2022/02/13 12:40:28;;;;;;;19.08;10.88;;;;;;;;;;4984004;28;20313;-47
2022/02/13 12:43:00;;;;;;;14.23;9.35;;;;;;;;;;4985003;28;20029;-46
2022/02/13 12:45:27;;;;;;;19.73;11.35;;;;;;;;;;4983847;28;20113;-46
2022/02/13 12:47:58;;;;;;;17.45;10.55;;;;;;;;;;4984027;28;20026;-46
2022/02/13 12:50:26;;;;;;;14.17;8.43;;;;;;;;;;4985329;28;20487;-45
2022/02/13 12:52:52;;;;;;;16.73;10.55;;;;;;;;;;4983969;28;20030;-47
2022/02/13 12:55:20;;;;;;;14.13;9.27;;;;;;;;;;4983573;28;20034;-47
2022/02/13 12:57:48;;;;;;;13.98;8.57;;;;;;;;;;4984694;28;20495;-44
2022/02/13 13:00:35;;;;;;;16.25;9.38;;;;;;;;;;4983630;28;20018;-46
2022/02/13 13:03:01;;;;;;;14.60;9.82;;;;;;;;;;4983264;28;20037;-44
2022/02/13 13:05:32;;;;;;;16.52;9.15;;;;;;;;;;4983550;28;20108;-45
2022/02/13 13:08:11;;;;;;;14.07;8.33;;;;;;;;;;4983327;28;20093;-45
2022/02/13 13:10:42;;;;;;;11.18;7.53;;;;;;;;;;4983422;28;20030;-47
2022/02/13 13:13:09;;;;;;;13.35;8.80;;;;;;;;;;4983110;28;20529;-44
2022/02/13 13:15:36;;;;;;;16.17;9.63;;;;;;;;;;4983119;28;20358;-44
2022/02/13 13:18:03;;;;;;;16.75;10.23;;;;;;;;;;4983365;28;20396;-46
2022/02/13 13:20:34;;;;;;;18.15;10.80;;;;;;;;;;4983313;28;20026;-46
2022/02/13 13:23:11;;;;;;;12.02;7.80;;;;;;;;;;4983480;28;20033;-47
2022/02/13 13:25:37;;;;;;;29.52;17.23;;;;;;;;;;4982927;28;20494;-44
2022/02/13 13:28:07;;;;;;;20.67;11.68;;;;;;;;;;4983974;28;20058;-47
2022/02/13 13:30:35;;;;;;;12.88;7.95;;;;;;;;;;4995450;28;20397;-47
2022/02/13 13:33:03;;;;;;;19.58;9.85;;;;;;;;;;5013796;28;20018;-47
2022/02/13 13:35:30;;;;;;;15.80;10.05;;;;;;;;;;5013740;28;20119;-47
2022/02/13 13:37:56;;;;;;;15.18;10.02;;;;;;;;;;5013779;28;20026;-47
2022/02/13 13:40:26;;;;;;;21.02;12.77;;;;;;;;;;5013709;28;20026;-47
2022/02/13 13:42:56;;;;;;;42.38;25.58;;;;;;;;;;5013812;28;20034;-47
2022/02/13 13:45:34;;;;;;;16.77;10.10;;;;;;;;;;5013630;28;20446;-47
2022/02/13 13:48:00;;;;;;;52.70;29.83;;;;;;;;;;5013746;28;20034;-48
2022/02/13 13:50:33;;;;;;;42.10;23.40;;;;;;;;;;5013772;28;20166;-47
2022/02/13 13:53:00;;;;;;;27.08;15.55;;;;;;;;;;5013671;28;20026;-48
2022/02/13 13:55:26;;;;;;;54.03;29.83;;;;;;;;;;5013429;28;20153;-46
2022/02/13 13:57:52;;;;;;;58.80;32.55;;;;;;;;;;5013582;28;20108;-46
2022/02/13 14:00:18;;;;;;;25.05;14.40;;;;;;;;;;5013391;28;20478;-46
2022/02/13 14:02:57;;;;;;;30.98;17.08;;;;;;;;;;5013253;28;20481;-46
2022/02/13 14:05:24;;;;;;;18.10;9.85;;;;;;;;;;5013314;28;20038;-45
2022/02/13 14:07:55;;;;;;;18.60;11.90;;;;;;;;;;5013430;28;20093;-46
2022/02/13 14:10:21;;;;;;;44.80;25.57;;;;;;;;;;5013391;28;20030;-45
2022/02/13 14:12:48;;;;;;;47.70;27.77;;;;;;;;;;5013413;28;20259;-45
2022/02/13 14:15:17;;;;;;;34.95;20.77;;;;;;;;;;5013544;28;20030;-45
2022/02/13 14:17:43;;;;;;;67.82;36.22;;;;;;;;;;5013410;28;20032;-44
2022/02/13 14:20:09;;;;;;;21.50;11.07;;;;;;;;;;5013391;28;20025;-44
2022/02/13 14:22:35;;;;;;;29.90;17.35;;;;;;;;;;5013160;28;20375;-47
2022/02/13 14:25:01;;;;;;;31.67;18.45;;;;;;;;;;5013166;28;20478;-47
2022/02/13 14:27:27;;;;;;;44.10;24.73;;;;;;;;;;5016707;28;20072;-46